sensor_id;sensor_type;location;lat;lon;timestamp;P1;durP1;ratioP1;P2;durP2;ratioP2
74259;SDS011;62630;55.874;37.516;2023-03-01T00:01:12;0.85;;;0.52;;
74259;SDS011;62630;55.874;37.516;2023-03-01T00:03:41;1.02;;;0.50;;
74259;SDS011;62630;55.874;37.516;2023-03-01T00:06:08;2.67;;;0.50;;
74259;SDS011;62630;55.874;37.516;2023-03-01T00:08:36;1.33;;;0.40;;
74259;SDS011;62630;55.874;37.516;2023-03-01T00:11:04;0.63;;;0.40;;
74259;SDS011;62630;55.874;37.516;2023-03-01T00:13:52;1.73;;;0.50;;
74259;SDS011;62630;55.874;37.516;2023-03-01T00:16:23;6.05;;;0.93;;
74259;SDS011;62630;55.874;37.516;2023-03-01T00:18:50;1.52;;;0.47;;
74259;SDS011;62630;55.874;37.516;2023-03-01T00:23:45;0.43;;;0.30;;
74259;SDS011;62630;55.874;37.516;2023-03-01T00:26:12;0.40;;;0.35;;
74259;SDS011;62630;55.874;37.516;2023-03-01T00:28:39;1.95;;;0.60;;
74259;SDS011;62630;55.874;37.516;2023-03-01T00:31:11;2.22;;;0.73;;
74259;SDS011;62630;55.874;37.516;2023-03-01T00:33:42;1.45;;;0.52;;
74259;SDS011;62630;55.874;37.516;2023-03-01T00:36:08;1.00;;;0.57;;
74259;SDS011;62630;55.874;37.516;2023-03-01T00:38:36;2.70;;;0.50;;
74259;SDS011;62630;55.874;37.516;2023-03-01T00:41:04;0.55;;;0.30;;
74259;SDS011;62630;55.874;37.516;2023-03-01T00:43:30;2.47;;;0.30;;
74259;SDS011;62630;55.874;37.516;2023-03-01T00:46:01;0.55;;;0.38;;
74259;SDS011;62630;55.874;37.516;2023-03-01T00:48:32;2.28;;;0.43;;
74259;SDS011;62630;55.874;37.516;2023-03-01T00:51:04;1.33;;;0.40;;
74259;SDS011;62630;55.874;37.516;2023-03-01T00:53:33;0.75;;;0.43;;
74259;SDS011;62630;55.874;37.516;2023-03-01T00:56:00;3.10;;;0.90;;
74259;SDS011;62630;55.874;37.516;2023-03-01T00:58:26;0.63;;;0.50;;
74259;SDS011;62630;55.874;37.516;2023-03-01T01:00:51;0.57;;;0.30;;
74259;SDS011;62630;55.874;37.516;2023-03-01T01:03:20;0.45;;;0.35;;
74259;SDS011;62630;55.874;37.516;2023-03-01T01:05:46;1.02;;;0.40;;
74259;SDS011;62630;55.874;37.516;2023-03-01T01:08:11;2.00;;;0.20;;
74259;SDS011;62630;55.874;37.516;2023-03-01T01:10:37;2.28;;;0.40;;
74259;SDS011;62630;55.874;37.516;2023-03-01T01:13:03;1.85;;;0.45;;
74259;SDS011;62630;55.874;37.516;2023-03-01T01:15:29;2.72;;;0.73;;
74259;SDS011;62630;55.874;37.516;2023-03-01T01:17:58;1.23;;;0.50;;
74259;SDS011;62630;55.874;37.516;2023-03-01T01:20:23;0.88;;;0.60;;
74259;SDS011;62630;55.874;37.516;2023-03-01T01:22:48;1.30;;;0.30;;
74259;SDS011;62630;55.874;37.516;2023-03-01T01:25:14;0.45;;;0.40;;
74259;SDS011;62630;55.874;37.516;2023-03-01T01:27:40;0.47;;;0.32;;
74259;SDS011;62630;55.874;37.516;2023-03-01T01:30:05;2.35;;;0.63;;
74259;SDS011;62630;55.874;37.516;2023-03-01T01:32:31;2.65;;;0.40;;
74259;SDS011;62630;55.874;37.516;2023-03-01T01:34:57;1.67;;;0.65;;
74259;SDS011;62630;55.874;37.516;2023-03-01T01:37:23;0.77;;;0.32;;
74259;SDS011;62630;55.874;37.516;2023-03-01T01:39:56;0.95;;;0.32;;
74259;SDS011;62630;55.874;37.516;2023-03-01T01:42:23;0.30;;;0.20;;
74259;SDS011;62630;55.874;37.516;2023-03-01T01:45:15;1.33;;;0.57;;
74259;SDS011;62630;55.874;37.516;2023-03-01T01:47:55;0.95;;;0.30;;
74259;SDS011;62630;55.874;37.516;2023-03-01T01:50:25;2.22;;;1.10;;
74259;SDS011;62630;55.874;37.516;2023-03-01T01:52:51;0.95;;;0.45;;
74259;SDS011;62630;55.874;37.516;2023-03-01T01:55:22;1.67;;;0.40;;
74259;SDS011;62630;55.874;37.516;2023-03-01T01:57:53;3.35;;;0.32;;
74259;SDS011;62630;55.874;37.516;2023-03-01T02:00:24;0.20;;;0.20;;
74259;SDS011;62630;55.874;37.516;2023-03-01T02:02:55;0.63;;;0.20;;
74259;SDS011;62630;55.874;37.516;2023-03-01T02:08:20;0.90;;;0.30;;
74259;SDS011;62630;55.874;37.516;2023-03-01T02:10:48;1.40;;;0.60;;
74259;SDS011;62630;55.874;37.516;2023-03-01T02:13:15;2.15;;;0.52;;
74259;SDS011;62630;55.874;37.516;2023-03-01T02:15:41;2.33;;;0.68;;
74259;SDS011;62630;55.874;37.516;2023-03-01T02:18:09;3.90;;;0.77;;
74259;SDS011;62630;55.874;37.516;2023-03-01T02:23:27;1.15;;;0.40;;
74259;SDS011;62630;55.874;37.516;2023-03-01T02:26:07;5.35;;;1.30;;
74259;SDS011;62630;55.874;37.516;2023-03-01T02:28:40;1.08;;;0.38;;
74259;SDS011;62630;55.874;37.516;2023-03-01T02:31:08;1.45;;;0.40;;
74259;SDS011;62630;55.874;37.516;2023-03-01T02:33:53;1.38;;;0.35;;
74259;SDS011;62630;55.874;37.516;2023-03-01T02:36:21;3.72;;;0.38;;
74259;SDS011;62630;55.874;37.516;2023-03-01T02:38:51;0.68;;;0.47;;
74259;SDS011;62630;55.874;37.516;2023-03-01T02:41:21;1.77;;;0.40;;
74259;SDS011;62630;55.874;37.516;2023-03-01T02:43:48;2.13;;;0.50;;
74259;SDS011;62630;55.874;37.516;2023-03-01T02:46:19;2.22;;;0.70;;
74259;SDS011;62630;55.874;37.516;2023-03-01T02:48:47;3.63;;;0.65;;
74259;SDS011;62630;55.874;37.516;2023-03-01T02:56:41;0.98;;;0.70;;
74259;SDS011;62630;55.874;37.516;2023-03-01T02:59:09;2.67;;;0.80;;
74259;SDS011;62630;55.874;37.516;2023-03-01T03:01:36;1.50;;;0.73;;
74259;SDS011;62630;55.874;37.516;2023-03-01T03:04:10;2.25;;;0.68;;
74259;SDS011;62630;55.874;37.516;2023-03-01T03:06:43;2.55;;;0.70;;
74259;SDS011;62630;55.874;37.516;2023-03-01T03:09:09;1.30;;;0.63;;
74259;SDS011;62630;55.874;37.516;2023-03-01T03:11:35;3.20;;;0.77;;
74259;SDS011;62630;55.874;37.516;2023-03-01T03:14:01;1.95;;;0.55;;
74259;SDS011;62630;55.874;37.516;2023-03-01T03:16:28;1.63;;;0.68;;
74259;SDS011;62630;55.874;37.516;2023-03-01T03:18:54;1.88;;;0.73;;
74259;SDS011;62630;55.874;37.516;2023-03-01T03:21:32;2.13;;;0.45;;
74259;SDS011;62630;55.874;37.516;2023-03-01T03:23:58;0.40;;;0.30;;
74259;SDS011;62630;55.874;37.516;2023-03-01T03:26:25;2.15;;;0.45;;
74259;SDS011;62630;55.874;37.516;2023-03-01T03:28:51;0.75;;;0.43;;
74259;SDS011;62630;55.874;37.516;2023-03-01T03:31:16;2.13;;;0.90;;
74259;SDS011;62630;55.874;37.516;2023-03-01T03:33:42;0.50;;;0.30;;
74259;SDS011;62630;55.874;37.516;2023-03-01T03:36:07;3.47;;;0.55;;
74259;SDS011;62630;55.874;37.516;2023-03-01T03:38:38;1.10;;;0.50;;
74259;SDS011;62630;55.874;37.516;2023-03-01T03:41:05;0.85;;;0.30;;
74259;SDS011;62630;55.874;37.516;2023-03-01T03:43:33;2.80;;;1.13;;
74259;SDS011;62630;55.874;37.516;2023-03-01T03:46:00;2.75;;;0.60;;
74259;SDS011;62630;55.874;37.516;2023-03-01T03:48:28;1.85;;;0.70;;
74259;SDS011;62630;55.874;37.516;2023-03-01T03:50:54;3.10;;;0.60;;
74259;SDS011;62630;55.874;37.516;2023-03-01T03:53:21;2.15;;;1.25;;
74259;SDS011;62630;55.874;37.516;2023-03-01T03:55:49;1.88;;;0.50;;
74259;SDS011;62630;55.874;37.516;2023-03-01T03:58:14;2.53;;;0.80;;
74259;SDS011;62630;55.874;37.516;2023-03-01T04:00:42;4.95;;;0.63;;
74259;SDS011;62630;55.874;37.516;2023-03-01T04:03:10;1.95;;;0.55;;
74259;SDS011;62630;55.874;37.516;2023-03-01T04:05:37;2.65;;;0.45;;
74259;SDS011;62630;55.874;37.516;2023-03-01T04:08:03;0.93;;;0.57;;
74259;SDS011;62630;55.874;37.516;2023-03-01T04:13:02;2.67;;;0.60;;
74259;SDS011;62630;55.874;37.516;2023-03-01T04:15:28;2.00;;;0.70;;
74259;SDS011;62630;55.874;37.516;2023-03-01T04:17:54;4.25;;;0.60;;
74259;SDS011;62630;55.874;37.516;2023-03-01T04:20:21;0.50;;;0.47;;
74259;SDS011;62630;55.874;37.516;2023-03-01T04:22:59;1.45;;;0.68;;
74259;SDS011;62630;55.874;37.516;2023-03-01T04:25:39;1.65;;;0.70;;
74259;SDS011;62630;55.874;37.516;2023-03-01T04:28:10;2.17;;;0.52;;
74259;SDS011;62630;55.874;37.516;2023-03-01T04:30:36;3.53;;;0.98;;
74259;SDS011;62630;55.874;37.516;2023-03-01T04:33:04;2.55;;;1.00;;
74259;SDS011;62630;55.874;37.516;2023-03-01T04:35:31;1.30;;;0.50;;
74259;SDS011;62630;55.874;37.516;2023-03-01T04:37:57;1.83;;;0.52;;
74259;SDS011;62630;55.874;37.516;2023-03-01T04:40:23;4.50;;;0.85;;
74259;SDS011;62630;55.874;37.516;2023-03-01T04:42:49;5.95;;;1.45;;
74259;SDS011;62630;55.874;37.516;2023-03-01T04:45:15;2.65;;;0.82;;
74259;SDS011;62630;55.874;37.516;2023-03-01T04:47:41;4.82;;;1.15;;
74259;SDS011;62630;55.874;37.516;2023-03-01T04:50:23;0.98;;;0.60;;
74259;SDS011;62630;55.874;37.516;2023-03-01T04:52:50;2.45;;;0.95;;
74259;SDS011;62630;55.874;37.516;2023-03-01T04:55:17;4.45;;;0.93;;
74259;SDS011;62630;55.874;37.516;2023-03-01T04:57:43;1.45;;;0.60;;
74259;SDS011;62630;55.874;37.516;2023-03-01T05:00:12;1.33;;;0.70;;
74259;SDS011;62630;55.874;37.516;2023-03-01T05:02:48;2.20;;;1.15;;
74259;SDS011;62630;55.874;37.516;2023-03-01T05:05:21;2.25;;;0.88;;
74259;SDS011;62630;55.874;37.516;2023-03-01T05:07:56;3.45;;;1.00;;
74259;SDS011;62630;55.874;37.516;2023-03-01T05:10:24;3.95;;;1.02;;
74259;SDS011;62630;55.874;37.516;2023-03-01T05:12:51;4.43;;;1.42;;
74259;SDS011;62630;55.874;37.516;2023-03-01T05:15:19;4.75;;;1.30;;
74259;SDS011;62630;55.874;37.516;2023-03-01T05:17:47;3.47;;;1.27;;
74259;SDS011;62630;55.874;37.516;2023-03-01T05:20:13;3.45;;;0.82;;
74259;SDS011;62630;55.874;37.516;2023-03-01T05:22:39;2.40;;;0.80;;
74259;SDS011;62630;55.874;37.516;2023-03-01T05:25:04;4.75;;;1.13;;
74259;SDS011;62630;55.874;37.516;2023-03-01T05:27:32;4.15;;;0.90;;
74259;SDS011;62630;55.874;37.516;2023-03-01T05:29:58;2.30;;;1.00;;
74259;SDS011;62630;55.874;37.516;2023-03-01T05:32:23;3.90;;;1.25;;
74259;SDS011;62630;55.874;37.516;2023-03-01T05:34:49;1.50;;;0.85;;
74259;SDS011;62630;55.874;37.516;2023-03-01T05:37:17;2.70;;;0.90;;
74259;SDS011;62630;55.874;37.516;2023-03-01T05:39:43;2.35;;;0.85;;
74259;SDS011;62630;55.874;37.516;2023-03-01T05:42:10;4.40;;;1.20;;
74259;SDS011;62630;55.874;37.516;2023-03-01T05:44:36;2.80;;;0.82;;
74259;SDS011;62630;55.874;37.516;2023-03-01T05:47:01;3.80;;;0.90;;
74259;SDS011;62630;55.874;37.516;2023-03-01T05:49:27;2.00;;;1.13;;
74259;SDS011;62630;55.874;37.516;2023-03-01T05:51:53;2.53;;;1.00;;
74259;SDS011;62630;55.874;37.516;2023-03-01T05:54:19;4.00;;;1.52;;
74259;SDS011;62630;55.874;37.516;2023-03-01T05:56:46;4.25;;;1.08;;
74259;SDS011;62630;55.874;37.516;2023-03-01T05:59:12;4.47;;;1.40;;
74259;SDS011;62630;55.874;37.516;2023-03-01T06:01:38;2.58;;;1.27;;
74259;SDS011;62630;55.874;37.516;2023-03-01T06:04:04;6.88;;;1.40;;
74259;SDS011;62630;55.874;37.516;2023-03-01T06:06:34;4.20;;;1.38;;
74259;SDS011;62630;55.874;37.516;2023-03-01T06:09:02;4.13;;;1.55;;
74259;SDS011;62630;55.874;37.516;2023-03-01T06:11:29;1.88;;;0.60;;
74259;SDS011;62630;55.874;37.516;2023-03-01T06:13:54;3.55;;;1.15;;
74259;SDS011;62630;55.874;37.516;2023-03-01T06:16:21;2.75;;;1.38;;
74259;SDS011;62630;55.874;37.516;2023-03-01T06:18:47;3.00;;;1.15;;
74259;SDS011;62630;55.874;37.516;2023-03-01T06:21:13;1.83;;;0.88;;
74259;SDS011;62630;55.874;37.516;2023-03-01T06:23:38;2.67;;;0.90;;
74259;SDS011;62630;55.874;37.516;2023-03-01T06:26:07;5.25;;;0.90;;
74259;SDS011;62630;55.874;37.516;2023-03-01T06:28:33;5.32;;;0.98;;
74259;SDS011;62630;55.874;37.516;2023-03-01T06:30:59;1.20;;;0.60;;
74259;SDS011;62630;55.874;37.516;2023-03-01T06:33:24;6.10;;;0.95;;
74259;SDS011;62630;55.874;37.516;2023-03-01T06:35:50;1.40;;;1.20;;
74259;SDS011;62630;55.874;37.516;2023-03-01T06:38:16;6.32;;;1.38;;
74259;SDS011;62630;55.874;37.516;2023-03-01T06:40:44;3.83;;;1.10;;
74259;SDS011;62630;55.874;37.516;2023-03-01T06:43:09;6.05;;;1.05;;
74259;SDS011;62630;55.874;37.516;2023-03-01T06:45:38;4.80;;;1.00;;
74259;SDS011;62630;55.874;37.516;2023-03-01T06:48:04;3.55;;;1.00;;
74259;SDS011;62630;55.874;37.516;2023-03-01T06:50:31;0.68;;;0.63;;
74259;SDS011;62630;55.874;37.516;2023-03-01T06:52:57;2.72;;;1.08;;
74259;SDS011;62630;55.874;37.516;2023-03-01T06:55:22;1.10;;;0.70;;
74259;SDS011;62630;55.874;37.516;2023-03-01T06:57:48;2.20;;;0.52;;
74259;SDS011;62630;55.874;37.516;2023-03-01T07:00:14;4.28;;;1.67;;
74259;SDS011;62630;55.874;37.516;2023-03-01T07:02:43;3.10;;;1.13;;
74259;SDS011;62630;55.874;37.516;2023-03-01T07:05:08;1.95;;;0.77;;
74259;SDS011;62630;55.874;37.516;2023-03-01T07:07:34;1.95;;;0.55;;
74259;SDS011;62630;55.874;37.516;2023-03-01T07:09:59;2.78;;;1.33;;
74259;SDS011;62630;55.874;37.516;2023-03-01T07:12:25;2.42;;;0.93;;
74259;SDS011;62630;55.874;37.516;2023-03-01T07:14:50;2.88;;;0.98;;
74259;SDS011;62630;55.874;37.516;2023-03-01T07:17:16;2.50;;;1.02;;
74259;SDS011;62630;55.874;37.516;2023-03-01T07:19:41;2.08;;;1.30;;
74259;SDS011;62630;55.874;37.516;2023-03-01T07:22:07;2.22;;;1.00;;
74259;SDS011;62630;55.874;37.516;2023-03-01T07:24:35;2.05;;;1.00;;
74259;SDS011;62630;55.874;37.516;2023-03-01T07:27:06;3.75;;;1.30;;
74259;SDS011;62630;55.874;37.516;2023-03-01T07:29:32;3.80;;;1.20;;
74259;SDS011;62630;55.874;37.516;2023-03-01T07:31:58;2.72;;;0.90;;
74259;SDS011;62630;55.874;37.516;2023-03-01T07:34:23;3.00;;;1.20;;
74259;SDS011;62630;55.874;37.516;2023-03-01T07:36:49;5.00;;;1.00;;
74259;SDS011;62630;55.874;37.516;2023-03-01T07:39:15;3.40;;;1.00;;
74259;SDS011;62630;55.874;37.516;2023-03-01T07:41:40;3.40;;;1.50;;
74259;SDS011;62630;55.874;37.516;2023-03-01T07:44:06;2.00;;;1.17;;
74259;SDS011;62630;55.874;37.516;2023-03-01T07:46:31;5.45;;;1.30;;
74259;SDS011;62630;55.874;37.516;2023-03-01T07:48:57;5.68;;;1.30;;
74259;SDS011;62630;55.874;37.516;2023-03-01T07:54:35;3.70;;;1.00;;
74259;SDS011;62630;55.874;37.516;2023-03-01T07:57:09;4.65;;;1.30;;
74259;SDS011;62630;55.874;37.516;2023-03-01T07:59:34;2.75;;;1.00;;
74259;SDS011;62630;55.874;37.516;2023-03-01T08:02:00;4.78;;;1.48;;
74259;SDS011;62630;55.874;37.516;2023-03-01T08:04:26;3.35;;;1.42;;
74259;SDS011;62630;55.874;37.516;2023-03-01T08:06:52;2.53;;;1.10;;
74259;SDS011;62630;55.874;37.516;2023-03-01T08:09:18;4.18;;;1.52;;
74259;SDS011;62630;55.874;37.516;2023-03-01T08:11:44;3.13;;;1.48;;
74259;SDS011;62630;55.874;37.516;2023-03-01T08:14:09;3.97;;;1.10;;
74259;SDS011;62630;55.874;37.516;2023-03-01T08:16:38;4.75;;;1.63;;
74259;SDS011;62630;55.874;37.516;2023-03-01T08:19:04;7.25;;;1.33;;
74259;SDS011;62630;55.874;37.516;2023-03-01T08:21:34;5.93;;;1.77;;
74259;SDS011;62630;55.874;37.516;2023-03-01T08:24:03;4.97;;;1.30;;
74259;SDS011;62630;55.874;37.516;2023-03-01T08:26:31;5.80;;;1.50;;
74259;SDS011;62630;55.874;37.516;2023-03-01T08:28:57;4.13;;;1.40;;
74259;SDS011;62630;55.874;37.516;2023-03-01T08:31:26;4.82;;;1.60;;
74259;SDS011;62630;55.874;37.516;2023-03-01T08:33:55;3.35;;;1.35;;
74259;SDS011;62630;55.874;37.516;2023-03-01T08:36:25;3.00;;;1.30;;
74259;SDS011;62630;55.874;37.516;2023-03-01T08:38:52;2.05;;;1.40;;
74259;SDS011;62630;55.874;37.516;2023-03-01T08:41:18;4.50;;;1.15;;
74259;SDS011;62630;55.874;37.516;2023-03-01T08:43:44;6.63;;;1.52;;
74259;SDS011;62630;55.874;37.516;2023-03-01T08:46:10;1.83;;;0.90;;
74259;SDS011;62630;55.874;37.516;2023-03-01T08:48:43;8.05;;;1.40;;
74259;SDS011;62630;55.874;37.516;2023-03-01T08:51:13;3.85;;;1.20;;
74259;SDS011;62630;55.874;37.516;2023-03-01T08:53:40;3.75;;;1.40;;
74259;SDS011;62630;55.874;37.516;2023-03-01T08:56:07;5.85;;;1.08;;
74259;SDS011;62630;55.874;37.516;2023-03-01T08:58:33;3.33;;;1.17;;
74259;SDS011;62630;55.874;37.516;2023-03-01T09:00:59;2.72;;;1.10;;
74259;SDS011;62630;55.874;37.516;2023-03-01T09:03:25;1.50;;;0.85;;
74259;SDS011;62630;55.874;37.516;2023-03-01T09:05:59;2.58;;;0.98;;
74259;SDS011;62630;55.874;37.516;2023-03-01T09:08:26;2.67;;;1.08;;
74259;SDS011;62630;55.874;37.516;2023-03-01T09:10:52;2.40;;;1.10;;
74259;SDS011;62630;55.874;37.516;2023-03-01T09:13:17;3.35;;;1.10;;
74259;SDS011;62630;55.874;37.516;2023-03-01T09:15:43;3.63;;;1.25;;
74259;SDS011;62630;55.874;37.516;2023-03-01T09:18:08;1.52;;;1.00;;
74259;SDS011;62630;55.874;37.516;2023-03-01T09:20:34;7.18;;;3.30;;
74259;SDS011;62630;55.874;37.516;2023-03-01T09:22:59;3.90;;;2.05;;
74259;SDS011;62630;55.874;37.516;2023-03-01T09:25:25;6.13;;;2.30;;
74259;SDS011;62630;55.874;37.516;2023-03-01T09:27:51;7.13;;;2.42;;
74259;SDS011;62630;55.874;37.516;2023-03-01T09:30:17;7.43;;;2.53;;
74259;SDS011;62630;55.874;37.516;2023-03-01T09:32:46;7.72;;;1.70;;
74259;SDS011;62630;55.874;37.516;2023-03-01T09:35:12;5.15;;;1.77;;
74259;SDS011;62630;55.874;37.516;2023-03-01T09:37:38;5.15;;;1.67;;
74259;SDS011;62630;55.874;37.516;2023-03-01T09:40:15;4.63;;;1.00;;
74259;SDS011;62630;55.874;37.516;2023-03-01T09:45:33;5.20;;;1.63;;
74259;SDS011;62630;55.874;37.516;2023-03-01T09:48:00;3.53;;;1.35;;
74259;SDS011;62630;55.874;37.516;2023-03-01T09:50:38;2.63;;;1.48;;
74259;SDS011;62630;55.874;37.516;2023-03-01T09:53:10;2.35;;;1.25;;
74259;SDS011;62630;55.874;37.516;2023-03-01T10:00:57;2.67;;;1.02;;
74259;SDS011;62630;55.874;37.516;2023-03-01T10:06:01;4.32;;;0.82;;
74259;SDS011;62630;55.874;37.516;2023-03-01T10:08:41;1.80;;;1.17;;
74259;SDS011;62630;55.874;37.516;2023-03-01T10:11:24;2.38;;;1.00;;
74259;SDS011;62630;55.874;37.516;2023-03-01T10:13:58;5.53;;;1.05;;
74259;SDS011;62630;55.874;37.516;2023-03-01T10:19:19;5.18;;;1.30;;
74259;SDS011;62630;55.874;37.516;2023-03-01T10:22:03;4.93;;;1.17;;
74259;SDS011;62630;55.874;37.516;2023-03-01T10:24:38;2.35;;;0.77;;
74259;SDS011;62630;55.874;37.516;2023-03-01T10:30:30;2.53;;;0.98;;
74259;SDS011;62630;55.874;37.516;2023-03-01T10:32:42;4.78;;;1.60;;
74259;SDS011;62630;55.874;37.516;2023-03-01T10:35:18;3.55;;;1.38;;
74259;SDS011;62630;55.874;37.516;2023-03-01T10:38:08;3.90;;;0.88;;
74259;SDS011;62630;55.874;37.516;2023-03-01T10:40:36;1.83;;;0.57;;
74259;SDS011;62630;55.874;37.516;2023-03-01T10:43:16;3.88;;;1.00;;
74259;SDS011;62630;55.874;37.516;2023-03-01T10:45:48;4.55;;;0.80;;
74259;SDS011;62630;55.874;37.516;2023-03-01T10:53:34;2.22;;;1.10;;
74259;SDS011;62630;55.874;37.516;2023-03-01T10:56:13;2.13;;;0.98;;
74259;SDS011;62630;55.874;37.516;2023-03-01T10:58:58;1.85;;;0.73;;
74259;SDS011;62630;55.874;37.516;2023-03-01T11:01:27;1.80;;;0.93;;
74259;SDS011;62630;55.874;37.516;2023-03-01T11:06:28;1.77;;;0.88;;
74259;SDS011;62630;55.874;37.516;2023-03-01T11:08:54;5.78;;;0.63;;
74259;SDS011;62630;55.874;37.516;2023-03-01T11:16:45;1.63;;;0.70;;
74259;SDS011;62630;55.874;37.516;2023-03-01T11:19:27;1.98;;;0.63;;
74259;SDS011;62630;55.874;37.516;2023-03-01T11:21:57;2.72;;;0.68;;
74259;SDS011;62630;55.874;37.516;2023-03-01T11:24:29;1.83;;;0.88;;
74259;SDS011;62630;55.874;37.516;2023-03-01T11:26:59;1.63;;;0.70;;
74259;SDS011;62630;55.874;37.516;2023-03-01T11:32:40;3.20;;;1.20;;
74259;SDS011;62630;55.874;37.516;2023-03-01T11:40:17;2.58;;;1.17;;
74259;SDS011;62630;55.874;37.516;2023-03-01T11:42:53;1.90;;;0.90;;
74259;SDS011;62630;55.874;37.516;2023-03-01T11:48:52;1.90;;;1.02;;
74259;SDS011;62630;55.874;37.516;2023-03-01T11:51:38;2.38;;;0.85;;
74259;SDS011;62630;55.874;37.516;2023-03-01T11:54:29;2.58;;;0.55;;
74259;SDS011;62630;55.874;37.516;2023-03-01T11:59:52;1.58;;;0.75;;
74259;SDS011;62630;55.874;37.516;2023-03-01T12:08:06;3.08;;;0.82;;
74259;SDS011;62630;55.874;37.516;2023-03-01T12:19:37;1.88;;;0.60;;
74259;SDS011;62630;55.874;37.516;2023-03-01T12:22:29;0.90;;;0.52;;
74259;SDS011;62630;55.874;37.516;2023-03-01T12:26:06;1.25;;;0.77;;
74259;SDS011;62630;55.874;37.516;2023-03-01T12:28:48;4.28;;;1.30;;
74259;SDS011;62630;55.874;37.516;2023-03-01T12:39:50;1.38;;;0.50;;
74259;SDS011;62630;55.874;37.516;2023-03-01T12:50:51;0.95;;;0.55;;
74259;SDS011;62630;55.874;37.516;2023-03-01T12:53:25;1.60;;;0.68;;
74259;SDS011;62630;55.874;37.516;2023-03-01T12:55:54;4.70;;;0.95;;
74259;SDS011;62630;55.874;37.516;2023-03-01T12:58:26;1.40;;;0.80;;
74259;SDS011;62630;55.874;37.516;2023-03-01T13:18:31;1.75;;;0.47;;
74259;SDS011;62630;55.874;37.516;2023-03-01T13:29:11;3.38;;;1.25;;
74259;SDS011;62630;55.874;37.516;2023-03-01T13:39:03;2.28;;;1.10;;
74259;SDS011;62630;55.874;37.516;2023-03-01T13:41:50;3.35;;;0.80;;
74259;SDS011;62630;55.874;37.516;2023-03-01T13:49:41;4.63;;;1.80;;
74259;SDS011;62630;55.874;37.516;2023-03-01T13:52:20;4.03;;;0.77;;
74259;SDS011;62630;55.874;37.516;2023-03-01T13:54:52;1.75;;;0.80;;
74259;SDS011;62630;55.874;37.516;2023-03-01T13:57:33;5.53;;;0.95;;
74259;SDS011;62630;55.874;37.516;2023-03-01T14:00:00;6.38;;;1.23;;
74259;SDS011;62630;55.874;37.516;2023-03-01T14:02:27;1.23;;;0.50;;
74259;SDS011;62630;55.874;37.516;2023-03-01T14:04:57;2.30;;;0.60;;
74259;SDS011;62630;55.874;37.516;2023-03-01T14:07:24;4.18;;;1.35;;
74259;SDS011;62630;55.874;37.516;2023-03-01T14:09:54;2.63;;;0.52;;
74259;SDS011;62630;55.874;37.516;2023-03-01T14:14:59;1.17;;;0.70;;
74259;SDS011;62630;55.874;37.516;2023-03-01T14:20:32;3.75;;;1.00;;
74259;SDS011;62630;55.874;37.516;2023-03-01T14:23:08;5.38;;;1.27;;
74259;SDS011;62630;55.874;37.516;2023-03-01T14:25:37;4.93;;;0.47;;
74259;SDS011;62630;55.874;37.516;2023-03-01T14:30:46;2.50;;;0.90;;
74259;SDS011;62630;55.874;37.516;2023-03-01T14:36:25;3.88;;;0.80;;
74259;SDS011;62630;55.874;37.516;2023-03-01T14:38:52;4.28;;;0.85;;
74259;SDS011;62630;55.874;37.516;2023-03-01T14:41:20;6.03;;;0.77;;
74259;SDS011;62630;55.874;37.516;2023-03-01T14:43:50;1.10;;;0.80;;
74259;SDS011;62630;55.874;37.516;2023-03-01T14:48:53;2.45;;;1.08;;
74259;SDS011;62630;55.874;37.516;2023-03-01T14:51:23;0.80;;;0.65;;
74259;SDS011;62630;55.874;37.516;2023-03-01T14:53:55;2.35;;;0.70;;
74259;SDS011;62630;55.874;37.516;2023-03-01T14:56:22;2.58;;;0.80;;
74259;SDS011;62630;55.874;37.516;2023-03-01T14:58:51;2.55;;;0.75;;
74259;SDS011;62630;55.874;37.516;2023-03-01T15:01:18;1.17;;;0.73;;
74259;SDS011;62630;55.874;37.516;2023-03-01T15:03:50;2.83;;;0.77;;
74259;SDS011;62630;55.874;37.516;2023-03-01T15:06:17;1.55;;;0.93;;
74259;SDS011;62630;55.874;37.516;2023-03-01T15:08:45;1.67;;;0.50;;
74259;SDS011;62630;55.874;37.516;2023-03-01T15:13:39;3.35;;;0.55;;
74259;SDS011;62630;55.874;37.516;2023-03-01T15:16:09;3.10;;;0.90;;
74259;SDS011;62630;55.874;37.516;2023-03-01T15:18:37;2.08;;;0.70;;
74259;SDS011;62630;55.874;37.516;2023-03-01T15:29:24;1.20;;;0.70;;
74259;SDS011;62630;55.874;37.516;2023-03-01T15:31:59;2.60;;;0.70;;
74259;SDS011;62630;55.874;37.516;2023-03-01T15:34:37;2.33;;;0.77;;
74259;SDS011;62630;55.874;37.516;2023-03-01T15:37:04;2.00;;;0.70;;
74259;SDS011;62630;55.874;37.516;2023-03-01T15:39:37;1.42;;;0.70;;
74259;SDS011;62630;55.874;37.516;2023-03-01T15:42:08;2.78;;;0.77;;
74259;SDS011;62630;55.874;37.516;2023-03-01T15:44:37;3.38;;;0.80;;
74259;SDS011;62630;55.874;37.516;2023-03-01T15:49:53;4.35;;;0.73;;
74259;SDS011;62630;55.874;37.516;2023-03-01T15:52:32;3.33;;;0.90;;
74259;SDS011;62630;55.874;37.516;2023-03-01T15:55:05;2.53;;;0.80;;
74259;SDS011;62630;55.874;37.516;2023-03-01T15:57:39;1.60;;;0.70;;
74259;SDS011;62630;55.874;37.516;2023-03-01T16:00:05;0.50;;;0.40;;
74259;SDS011;62630;55.874;37.516;2023-03-01T16:02:36;3.70;;;0.77;;
74259;SDS011;62630;55.874;37.516;2023-03-01T16:05:03;1.08;;;0.60;;
74259;SDS011;62630;55.874;37.516;2023-03-01T16:07:29;4.68;;;0.60;;
74259;SDS011;62630;55.874;37.516;2023-03-01T16:09:56;1.33;;;0.70;;
74259;SDS011;62630;55.874;37.516;2023-03-01T16:12:22;2.15;;;0.85;;
74259;SDS011;62630;55.874;37.516;2023-03-01T16:14:49;2.22;;;0.85;;
74259;SDS011;62630;55.874;37.516;2023-03-01T16:17:15;1.90;;;0.60;;
74259;SDS011;62630;55.874;37.516;2023-03-01T16:19:43;1.38;;;1.02;;
74259;SDS011;62630;55.874;37.516;2023-03-01T16:22:09;1.50;;;0.70;;
74259;SDS011;62630;55.874;37.516;2023-03-01T16:24:35;2.47;;;0.73;;
74259;SDS011;62630;55.874;37.516;2023-03-01T16:27:01;1.35;;;0.80;;
74259;SDS011;62630;55.874;37.516;2023-03-01T16:29:27;1.85;;;0.70;;
74259;SDS011;62630;55.874;37.516;2023-03-01T16:31:54;5.00;;;0.73;;
74259;SDS011;62630;55.874;37.516;2023-03-01T16:34:19;1.58;;;0.60;;
74259;SDS011;62630;55.874;37.516;2023-03-01T16:36:46;2.50;;;0.73;;
74259;SDS011;62630;55.874;37.516;2023-03-01T16:39:12;2.30;;;0.52;;
74259;SDS011;62630;55.874;37.516;2023-03-01T16:41:38;2.38;;;0.70;;
74259;SDS011;62630;55.874;37.516;2023-03-01T16:44:03;2.15;;;0.60;;
74259;SDS011;62630;55.874;37.516;2023-03-01T16:46:29;3.92;;;0.60;;
74259;SDS011;62630;55.874;37.516;2023-03-01T16:48:55;0.50;;;0.50;;
74259;SDS011;62630;55.874;37.516;2023-03-01T16:51:21;0.95;;;0.60;;
74259;SDS011;62630;55.874;37.516;2023-03-01T16:53:48;1.90;;;0.75;;
74259;SDS011;62630;55.874;37.516;2023-03-01T16:56:14;3.60;;;0.90;;
74259;SDS011;62630;55.874;37.516;2023-03-01T16:58:40;2.20;;;0.52;;
74259;SDS011;62630;55.874;37.516;2023-03-01T17:01:07;0.60;;;0.50;;
74259;SDS011;62630;55.874;37.516;2023-03-01T17:03:37;2.38;;;0.80;;
74259;SDS011;62630;55.874;37.516;2023-03-01T17:06:04;1.17;;;0.65;;
74259;SDS011;62630;55.874;37.516;2023-03-01T17:08:36;1.10;;;0.47;;
74259;SDS011;62630;55.874;37.516;2023-03-01T17:11:10;0.65;;;0.43;;
74259;SDS011;62630;55.874;37.516;2023-03-01T17:13:39;3.15;;;0.50;;
74259;SDS011;62630;55.874;37.516;2023-03-01T17:16:06;3.75;;;0.70;;
74259;SDS011;62630;55.874;37.516;2023-03-01T17:18:33;1.77;;;0.60;;
74259;SDS011;62630;55.874;37.516;2023-03-01T17:20:59;2.35;;;0.65;;
74259;SDS011;62630;55.874;37.516;2023-03-01T17:23:25;3.58;;;0.75;;
74259;SDS011;62630;55.874;37.516;2023-03-01T17:25:52;1.48;;;0.68;;